Wednesday, November 22, 2017, 4:04 AM EST
Back to Local

KDDH, Bennington Morse State Airport

Location: Bennington, VT, United States Lat: 42.883
Local Time: 4:04 AM EST ( 9:04 GMT) Lon: -73.25
Time Zone: US/Eastern Elev: 826 ft

Show me the last for .
Show Coded

Time T Td Feel RH Dir Speed Gust Alt SLP Vis Weather Sky Remarks
2017-11-22 02:54 47 33 44 58 220° 6 - 29.92 29.92 10 CLR None
2017-11-22 01:54 44 29 - 55 - Calm - 29.92 29.92 10 CLR None
2017-11-22 00:54 43 27 - 52 - Calm - 29.92 29.93 10 CLR 6-hr Min Temp (1am): 41.0°F
6-hr Max Temp (1am): 52.0°F
2017-11-21 23:54 43 26 - 50 - Calm - 29.94 29.95 10 CLR 24-hr Min Temp (12am): 23.0°F
24-hr Max Temp (12am): 55.9°F
2017-11-21 22:54 48 26 45 42 190° 6 - 29.95 29.95 10 CLR None
2017-11-21 21:54 49 27 46 42 200° 7 - 29.94 29.95 10 CLR None
2017-11-21 20:54 50 27 47 40 200° 8 - 29.95 29.96 10 CLR None
2017-11-21 19:54 52 25 - 34 190° 14 26 29.93 29.94 10 CLR None
2017-11-21 18:54 52 23 - 31 190° 10 - 29.93 29.94 10 CLR 6-hr Min Temp (7pm): 51.1°F
6-hr Max Temp (7pm): 55.0°F
2017-11-21 17:54 53 22 - 29 190° 13 - 29.92 29.93 10 CLR None
2017-11-21 16:54 52 22 - 30 180° 10 26 29.91 29.92 10 CLR None
2017-11-21 15:54 52 20 - 28 170° 8 - 29.89 29.91 10 CLR None
2017-11-21 14:54 54 21 - 27 190° 8 18 29.89 29.90 10 CLR None
2017-11-21 13:54 55 23 - 28 170° 15 23 29.89 29.90 10 CLR None
2017-11-21 12:54 55 23 - 28 200° 15 - 29.91 29.93 10 CLR 6-hr Min Temp (1pm): 25.0°F
6-hr Max Temp (1pm): 55.9°F
2017-11-21 11:54 54 22 - 28 220° 15 21 29.92 29.93 10 CLR None
2017-11-21 10:54 53 22 - 29 200° 13 20 29.94 29.95 10 CLR None
2017-11-21 09:54 50 23 43 34 190° 10 21 29.96 29.97 10 CLR None
2017-11-21 08:54 42 28 40 57 250° 3 - 29.98 30.00 10 CLR None
2017-11-21 07:54 29 24 25 81 330° 3 - 30.01 30.03 10 CLR None
2017-11-21 06:54 26 22 - 84 - Calm - 30.01 30.04 10 CLR 6-hr Min Temp (7am): 23.0°F
6-hr Max Temp (7am): 28.9°F
2017-11-21 05:54 25 21 - 84 - Calm - 30.01 30.04 10 CLR None
2017-11-21 04:54 26 23 - 87 - Calm - 30.00 30.03 9 CLR None

Support USWX by starting your Amazon purchase here.